Time;durP1;ratioP1;P1;durP2;ratioP2;P2;SDS_P1;SDS_P2;PMS_P1;PMS_P2;Temp;Humidity;BMP_temperature;BMP_pressure;BME280_temperature;BME280_humidity;BME280_pressure;Samples;Min_cycle;Max_cycle;Signal;HPM_P1;HPM_P2
2023/01/10 00:00:24;;;;;;;5.20;2.65;;;;;;;;;;5029634;28;20040;-43
2023/01/10 00:02:51;;;;;;;3.50;2.50;;;;;;;;;;5028060;28;20061;-44
2023/01/10 00:05:16;;;;;;;3.53;2.47;;;;;;;;;;5025866;28;20041;-49
2023/01/10 00:07:42;;;;;;;3.72;2.25;;;;;;;;;;5028948;28;20037;-49
2023/01/10 00:10:09;;;;;;;11.52;3.78;;;;;;;;;;5028832;28;20045;-43
2023/01/10 00:15:18;;;;;;;3.78;2.85;;;;;;;;;;5027649;28;20386;-46
2023/01/10 00:17:43;;;;;;;2.95;2.20;;;;;;;;;;5026059;28;20046;-46
2023/01/10 00:20:10;;;;;;;4.28;2.08;;;;;;;;;;5028781;28;20045;-43
2023/01/10 00:22:35;;;;;;;2.60;2.00;;;;;;;;;;5030335;28;20045;-42
2023/01/10 00:25:00;;;;;;;3.63;1.73;;;;;;;;;;5028226;28;20029;-46
2023/01/10 00:27:26;;;;;;;4.35;1.77;;;;;;;;;;5026991;28;20489;-46
2023/01/10 00:29:51;;;;;;;4.60;1.60;;;;;;;;;;5030585;28;20029;-48
2023/01/10 00:32:20;;;;;;;2.10;1.48;;;;;;;;;;5024579;28;20021;-46
2023/01/10 00:34:46;;;;;;;3.28;1.30;;;;;;;;;;5027467;28;20083;-45
2023/01/10 00:37:12;;;;;;;2.08;1.60;;;;;;;;;;5025003;28;20030;-45
2023/01/10 00:39:37;;;;;;;3.33;1.90;;;;;;;;;;5029534;28;20167;-46
2023/01/10 00:44:47;;;;;;;3.88;1.50;;;;;;;;;;5025848;28;20095;-46
2023/01/10 00:47:13;;;;;;;3.08;1.40;;;;;;;;;;5028518;28;20029;-48
2023/01/10 00:49:39;;;;;;;2.47;1.20;;;;;;;;;;5026623;28;20028;-47
2023/01/10 00:52:04;;;;;;;2.80;1.33;;;;;;;;;;5029313;28;20116;-44
2023/01/10 00:54:30;;;;;;;1.83;1.08;;;;;;;;;;5026734;28;20049;-46
2023/01/10 00:56:56;;;;;;;2.97;1.48;;;;;;;;;;5027095;28;20386;-43
2023/01/10 00:59:22;;;;;;;4.53;1.40;;;;;;;;;;5026001;28;20430;-46
2023/01/10 01:01:48;;;;;;;3.10;1.20;;;;;;;;;;5028556;28;20388;-45
2023/01/10 01:04:14;;;;;;;3.10;1.38;;;;;;;;;;5008760;28;20053;-48
2023/01/10 01:06:39;;;;;;;5.18;1.50;;;;;;;;;;5006204;28;20033;-46
2023/01/10 01:09:04;;;;;;;5.70;1.75;;;;;;;;;;5008351;28;20053;-46
2023/01/10 01:11:30;;;;;;;5.82;1.60;;;;;;;;;;5009198;28;20054;-47
2023/01/10 01:13:55;;;;;;;1.42;1.17;;;;;;;;;;5007156;28;20044;-43
2023/01/10 01:16:21;;;;;;;2.58;1.23;;;;;;;;;;5007486;28;20467;-46
2023/01/10 01:18:46;;;;;;;2.45;1.20;;;;;;;;;;5020829;28;20187;-45
2023/01/10 01:21:12;;;;;;;2.83;1.25;;;;;;;;;;5027521;28;20045;-43
2023/01/10 01:23:37;;;;;;;4.47;1.88;;;;;;;;;;5025521;28;20042;-45
2023/01/10 01:26:04;;;;;;;2.58;1.40;;;;;;;;;;5028461;28;20450;-46
2023/01/10 01:28:29;;;;;;;2.08;1.13;;;;;;;;;;5026256;28;20405;-43
2023/01/10 01:30:55;;;;;;;4.47;1.70;;;;;;;;;;5028166;28;20025;-44
2023/01/10 01:33:20;;;;;;;4.32;1.80;;;;;;;;;;5025749;28;20513;-43
2023/01/10 01:35:47;;;;;;;4.43;1.50;;;;;;;;;;5028418;28;20067;-43
2023/01/10 01:38:13;;;;;;;2.55;1.27;;;;;;;;;;5026904;28;20044;-50
2023/01/10 01:40:40;;;;;;;2.25;1.52;;;;;;;;;;5027715;28;20382;-43
2023/01/10 01:43:22;;;;;;;2.53;1.60;;;;;;;;;;5025727;28;20033;-44
2023/01/10 01:45:48;;;;;;;4.57;1.48;;;;;;;;;;5028203;28;20466;-49
2023/01/10 01:48:16;;;;;;;3.22;1.67;;;;;;;;;;5027846;28;20052;-46
2023/01/10 01:50:50;;;;;;;4.38;1.60;;;;;;;;;;5028252;28;20923;-45
2023/01/10 01:53:28;;;;;;;2.00;1.65;;;;;;;;;;5026207;28;20045;-44
2023/01/10 01:55:56;;;;;;;3.13;1.85;;;;;;;;;;5027437;28;20034;-48
2023/01/10 01:58:29;;;;;;;3.17;1.65;;;;;;;;;;5025298;28;20048;-43
2023/01/10 02:00:57;;;;;;;3.47;1.60;;;;;;;;;;5027927;28;20033;-45
2023/01/10 02:03:23;;;;;;;3.40;1.52;;;;;;;;;;5027571;28;20041;-50
2023/01/10 02:05:48;;;;;;;2.83;1.60;;;;;;;;;;5025311;28;20068;-45
2023/01/10 02:08:14;;;;;;;1.65;1.35;;;;;;;;;;5027482;28;20037;-48
2023/01/10 02:10:51;;;;;;;3.40;1.30;;;;;;;;;;5026352;28;20034;-50
2023/01/10 02:13:19;;;;;;;1.83;1.20;;;;;;;;;;5023128;28;20095;-49
2023/01/10 02:15:44;;;;;;;3.50;1.23;;;;;;;;;;5027862;28;20039;-47
2023/01/10 02:18:10;;;;;;;2.10;1.02;;;;;;;;;;5023181;28;20049;-44
2023/01/10 02:20:56;;;;;;;3.38;1.27;;;;;;;;;;5027148;28;20411;-47
2023/01/10 02:23:56;;;;;;;4.53;1.45;;;;;;;;;;5022973;28;20517;-50
2023/01/10 02:26:30;;;;;;;3.60;1.17;;;;;;;;;;5026239;28;20036;-48
2023/01/10 02:29:17;;;;;;;2.97;1.00;;;;;;;;;;5026262;28;20208;-48
2023/01/10 02:32:27;;;;;;;4.00;1.73;;;;;;;;;;5024504;28;20029;-46
2023/01/10 02:35:28;;;;;;;6.60;0.90;;;;;;;;;;5014142;28;20083;-47
2023/01/10 02:38:20;;;;;;;5.15;1.25;;;;;;;;;;4937347;29;20047;-46
2023/01/10 02:40:50;;;;;;;2.10;0.85;;;;;;;;;;4927644;29;20051;-48
2023/01/10 02:43:20;;;;;;;2.83;1.20;;;;;;;;;;4929460;29;20127;-45
2023/01/10 02:45:54;;;;;;;2.10;1.00;;;;;;;;;;4932193;29;20073;-46
2023/01/10 02:48:21;;;;;;;1.90;1.30;;;;;;;;;;4930008;29;20039;-46
2023/01/10 02:50:55;;;;;;;1.98;0.82;;;;;;;;;;4934947;29;20039;-47
2023/01/10 02:53:26;;;;;;;2.15;1.13;;;;;;;;;;4934755;29;20126;-46
2023/01/10 02:56:48;;;;;;;4.80;1.45;;;;;;;;;;4934022;29;20031;-48
2023/01/10 02:59:13;;;;;;;8.33;1.50;;;;;;;;;;4870776;29;20140;-48
2023/01/10 03:01:50;;;;;;;1.95;1.13;;;;;;;;;;4879855;29;20591;-43
2023/01/10 03:04:50;;;;;;;3.22;1.38;;;;;;;;;;4877176;29;20049;-45
2023/01/10 03:07:46;;;;;;;4.68;1.85;;;;;;;;;;4878560;29;20562;-43
2023/01/10 03:10:22;;;;;;;2.47;1.23;;;;;;;;;;4880231;29;20096;-43
2023/01/10 03:12:56;;;;;;;2.10;1.10;;;;;;;;;;4914771;28;20046;-43
2023/01/10 03:15:23;;;;;;;1.77;1.10;;;;;;;;;;4975491;28;20034;-45
2023/01/10 03:17:53;;;;;;;3.17;1.10;;;;;;;;;;4971927;28;20057;-43
2023/01/10 03:20:20;;;;;;;1.33;1.20;;;;;;;;;;4973660;28;20069;-44
2023/01/10 03:22:46;;;;;;;1.73;1.20;;;;;;;;;;4973600;28;20522;-44
2023/01/10 03:25:14;;;;;;;3.95;1.20;;;;;;;;;;4970885;28;20571;-45
2023/01/10 03:27:58;;;;;;;3.17;1.25;;;;;;;;;;4976012;28;20054;-43
2023/01/10 03:30:51;;;;;;;3.15;1.33;;;;;;;;;;5007017;28;20052;-43
2023/01/10 03:33:21;;;;;;;2.53;1.23;;;;;;;;;;5037583;28;20076;-44
2023/01/10 03:35:59;;;;;;;4.18;1.13;;;;;;;;;;5030796;28;20025;-44
2023/01/10 03:38:42;;;;;;;4.00;1.20;;;;;;;;;;5028499;28;20057;-43
2023/01/10 03:41:21;;;;;;;6.97;1.15;;;;;;;;;;5024637;28;20056;-43
2023/01/10 03:46:55;;;;;;;3.40;1.15;;;;;;;;;;5031350;28;20044;-42
2023/01/10 03:49:23;;;;;;;2.27;1.50;;;;;;;;;;5027977;28;20044;-45
2023/01/10 03:51:49;;;;;;;2.80;1.40;;;;;;;;;;5029432;28;20454;-45
2023/01/10 03:54:16;;;;;;;3.03;1.48;;;;;;;;;;5030951;28;20045;-44
2023/01/10 03:56:51;;;;;;;3.63;1.38;;;;;;;;;;5027488;28;20533;-44
2023/01/10 03:59:23;;;;;;;4.90;1.50;;;;;;;;;;5031005;28;20744;-46
2023/01/10 04:01:48;;;;;;;;;;;;;;;;;;5027226;28;20556;-44
2023/01/10 04:04:14;;;;;;;3.83;1.30;;;;;;;;;;5029375;28;19975;-43
2023/01/10 04:06:40;;;;;;;2.90;1.23;;;;;;;;;;5030269;28;20025;-43
2023/01/10 04:09:06;;;;;;;3.63;1.33;;;;;;;;;;5028992;28;20052;-47
2023/01/10 04:11:31;;;;;;;4.38;1.50;;;;;;;;;;5029079;28;20053;-44
2023/01/10 04:13:57;;;;;;;3.75;1.30;;;;;;;;;;5028703;28;20050;-46
2023/01/10 04:16:22;;;;;;;2.58;1.27;;;;;;;;;;5028725;28;20021;-43
2023/01/10 04:18:47;;;;;;;3.97;1.30;;;;;;;;;;5024527;28;20045;-46
2023/01/10 04:21:13;;;;;;;4.43;1.58;;;;;;;;;;5029061;28;20036;-43
2023/01/10 04:23:38;;;;;;;3.60;1.15;;;;;;;;;;5028088;28;20401;-44
2023/01/10 04:26:04;;;;;;;4.80;1.40;;;;;;;;;;5028538;28;20029;-46
2023/01/10 04:28:29;;;;;;;4.70;1.55;;;;;;;;;;5028155;28;20128;-45
2023/01/10 04:30:54;;;;;;;3.50;1.52;;;;;;;;;;5030423;28;20037;-49
2023/01/10 04:33:20;;;;;;;4.70;1.60;;;;;;;;;;5026904;28;20239;-45
2023/01/10 04:35:47;;;;;;;5.00;1.45;;;;;;;;;;5027418;28;20452;-47
2023/01/10 04:38:12;;;;;;;3.20;1.42;;;;;;;;;;5028731;28;20049;-45
2023/01/10 04:40:37;;;;;;;2.80;1.30;;;;;;;;;;5025307;28;20421;-45
2023/01/10 04:43:03;;;;;;;3.00;1.40;;;;;;;;;;5029105;28;20044;-45
2023/01/10 04:45:28;;;;;;;4.95;1.42;;;;;;;;;;5031998;28;20025;-45
2023/01/10 04:47:55;;;;;;;3.53;1.67;;;;;;;;;;5028630;28;20052;-47
2023/01/10 04:50:22;;;;;;;3.15;1.52;;;;;;;;;;5030253;28;20028;-43
2023/01/10 04:52:47;;;;;;;2.35;1.15;;;;;;;;;;5026409;28;20533;-48
2023/01/10 04:55:13;;;;;;;4.85;1.40;;;;;;;;;;5027697;28;20037;-43
2023/01/10 04:57:38;;;;;;;5.03;1.50;;;;;;;;;;5024947;28;20038;-42
2023/01/10 05:00:04;;;;;;;3.45;1.33;;;;;;;;;;5027519;28;20037;-43
2023/01/10 05:02:30;;;;;;;2.40;1.00;;;;;;;;;;5026909;28;20052;-46
2023/01/10 05:04:55;;;;;;;3.80;1.17;;;;;;;;;;5028860;28;20018;-46
2023/01/10 05:07:20;;;;;;;4.35;0.90;;;;;;;;;;5026922;28;20091;-43
2023/01/10 05:09:46;;;;;;;3.65;1.17;;;;;;;;;;5028068;28;20025;-46
2023/01/10 05:12:11;;;;;;;3.42;1.48;;;;;;;;;;5028646;28;20036;-46
2023/01/10 05:14:36;;;;;;;3.35;1.73;;;;;;;;;;5027539;28;20063;-43
2023/01/10 05:17:02;;;;;;;2.58;1.75;;;;;;;;;;5021949;28;20033;-44
2023/01/10 05:19:27;;;;;;;2.55;1.50;;;;;;;;;;5025791;28;20037;-43
2023/01/10 05:21:53;;;;;;;3.22;1.65;;;;;;;;;;5027550;28;20112;-45
2023/01/10 05:24:19;;;;;;;1.75;0.82;;;;;;;;;;5026489;28;20040;-46
2023/01/10 05:26:44;;;;;;;3.90;1.08;;;;;;;;;;5030328;28;20029;-45
2023/01/10 05:29:11;;;;;;;3.30;1.35;;;;;;;;;;5028022;28;20050;-49
2023/01/10 05:31:36;;;;;;;4.63;1.30;;;;;;;;;;5019529;28;20030;-48
2023/01/10 05:34:01;;;;;;;3.33;1.10;;;;;;;;;;5025804;28;20037;-45
2023/01/10 05:36:27;;;;;;;3.17;1.20;;;;;;;;;;5026187;28;20033;-45
2023/01/10 05:38:52;;;;;;;1.30;0.73;;;;;;;;;;5032053;28;20107;-48
2023/01/10 05:41:18;;;;;;;4.88;1.02;;;;;;;;;;5028970;28;20036;-43
2023/01/10 05:43:43;;;;;;;5.45;1.20;;;;;;;;;;5027833;28;20084;-43
2023/01/10 05:46:09;;;;;;;8.75;1.75;;;;;;;;;;5028404;28;20099;-46
2023/01/10 05:48:34;;;;;;;3.53;1.15;;;;;;;;;;5026873;28;20041;-48
2023/01/10 05:51:00;;;;;;;5.15;1.00;;;;;;;;;;5025473;28;20554;-44
2023/01/10 05:53:26;;;;;;;1.98;0.90;;;;;;;;;;5026540;28;20044;-44
2023/01/10 05:56:01;;;;;;;2.30;1.40;;;;;;;;;;5023997;28;21920;-45
2023/01/10 05:58:28;;;;;;;3.17;1.08;;;;;;;;;;5023805;28;20041;-44
2023/01/10 06:00:55;;;;;;;4.03;1.17;;;;;;;;;;5024346;28;20494;-48
2023/01/10 06:03:20;;;;;;;5.28;1.35;;;;;;;;;;5028376;28;20041;-49
2023/01/10 06:05:46;;;;;;;5.55;1.15;;;;;;;;;;5026100;28;20500;-48
2023/01/10 06:08:11;;;;;;;3.47;1.10;;;;;;;;;;5026642;28;20758;-45
2023/01/10 06:10:36;;;;;;;4.13;1.20;;;;;;;;;;5028137;28;20756;-45
2023/01/10 06:13:04;;;;;;;7.65;1.55;;;;;;;;;;5027553;28;20116;-46
2023/01/10 06:15:29;;;;;;;6.32;1.42;;;;;;;;;;5025054;28;20029;-44
2023/01/10 06:17:55;;;;;;;7.00;1.55;;;;;;;;;;5022698;28;20379;-48
2023/01/10 06:20:20;;;;;;;6.72;1.70;;;;;;;;;;5026320;28;20115;-45
2023/01/10 06:22:45;;;;;;;6.47;1.33;;;;;;;;;;5016678;28;20033;-45
2023/01/10 06:25:12;;;;;;;9.55;1.67;;;;;;;;;;5027855;28;20041;-43
2023/01/10 06:27:42;;;;;;;4.43;1.50;;;;;;;;;;5026390;28;20151;-41
2023/01/10 06:30:09;;;;;;;8.88;1.30;;;;;;;;;;5021529;28;20033;-45
2023/01/10 06:32:35;;;;;;;7.03;1.40;;;;;;;;;;5023692;28;20048;-44
2023/01/10 06:35:00;;;;;;;6.82;1.70;;;;;;;;;;5024373;28;20026;-48
2023/01/10 06:37:25;;;;;;;8.55;1.92;;;;;;;;;;5021982;28;20064;-45
2023/01/10 06:39:51;;;;;;;5.05;1.65;;;;;;;;;;5026382;28;20475;-45
2023/01/10 06:42:16;;;;;;;8.23;1.58;;;;;;;;;;5022753;28;20040;-46
2023/01/10 06:44:42;;;;;;;6.13;1.17;;;;;;;;;;5026506;28;20026;-47
2023/01/10 06:47:07;;;;;;;4.53;1.50;;;;;;;;;;5026533;28;20041;-43
2023/01/10 06:49:32;;;;;;;4.85;1.77;;;;;;;;;;5021167;28;20507;-48
2023/01/10 06:51:58;;;;;;;7.47;1.52;;;;;;;;;;5021666;28;20033;-44
2023/01/10 06:54:23;;;;;;;4.47;1.30;;;;;;;;;;5020549;28;20042;-46
2023/01/10 06:56:48;;;;;;;11.30;1.73;;;;;;;;;;5020452;28;20021;-45
2023/01/10 06:59:14;;;;;;;7.25;1.73;;;;;;;;;;5025853;28;20053;-44
2023/01/10 07:01:39;;;;;;;5.00;1.30;;;;;;;;;;5016759;28;20033;-43
2023/01/10 07:04:05;;;;;;;3.25;1.27;;;;;;;;;;5023304;28;20038;-44
2023/01/10 07:06:31;;;;;;;4.57;1.67;;;;;;;;;;5023558;28;20030;-46
2023/01/10 07:08:56;;;;;;;9.40;1.58;;;;;;;;;;5024548;28;20037;-45
2023/01/10 07:11:22;;;;;;;5.15;1.55;;;;;;;;;;5026937;28;20037;-47
2023/01/10 07:13:47;;;;;;;8.68;1.80;;;;;;;;;;5024471;28;20038;-48
2023/01/10 07:16:14;;;;;;;6.13;1.33;;;;;;;;;;5021824;28;20061;-48
2023/01/10 07:18:41;;;;;;;7.00;1.55;;;;;;;;;;5013282;28;20097;-46
2023/01/10 07:21:08;;;;;;;7.07;1.40;;;;;;;;;;5011556;28;20037;-49
2023/01/10 07:23:34;;;;;;;4.80;1.38;;;;;;;;;;5024794;28;20033;-50
2023/01/10 07:26:05;;;;;;;6.47;1.65;;;;;;;;;;5028051;28;20064;-49
2023/01/10 07:28:33;;;;;;;4.03;1.43;;;;;;;;;;5021262;28;20037;-44
2023/01/10 07:30:59;;;;;;;9.98;1.83;;;;;;;;;;5016408;28;20067;-45
2023/01/10 07:33:24;;;;;;;10.73;1.80;;;;;;;;;;5020493;28;20048;-43
2023/01/10 07:35:49;;;;;;;7.00;2.00;;;;;;;;;;5027095;28;20018;-44
2023/01/10 07:38:15;;;;;;;8.07;1.80;;;;;;;;;;5026959;28;20038;-45
2023/01/10 07:40:40;;;;;;;5.10;1.50;;;;;;;;;;5026635;28;20473;-45
2023/01/10 07:43:06;;;;;;;7.80;1.92;;;;;;;;;;5025960;28;20034;-44
2023/01/10 07:45:31;;;;;;;8.85;2.05;;;;;;;;;;5026690;28;20029;-48
2023/01/10 07:48:01;;;;;;;10.35;2.00;;;;;;;;;;5021767;28;20402;-45
2023/01/10 07:50:29;;;;;;;4.57;1.50;;;;;;;;;;5024193;28;20360;-45
2023/01/10 07:52:55;;;;;;;7.95;1.95;;;;;;;;;;5012613;28;20038;-42
2023/01/10 07:55:21;;;;;;;5.75;1.95;;;;;;;;;;5025870;28;20104;-43
2023/01/10 07:57:49;;;;;;;14.13;1.80;;;;;;;;;;5029116;28;20120;-45
2023/01/10 08:00:15;;;;;;;12.55;1.80;;;;;;;;;;5029155;28;20034;-48
2023/01/10 08:02:40;;;;;;;9.60;2.13;;;;;;;;;;5027616;28;20040;-48
2023/01/10 08:05:06;;;;;;;5.05;1.80;;;;;;;;;;5028728;28;20113;-44
2023/01/10 08:07:31;;;;;;;11.05;2.10;;;;;;;;;;5029560;28;20482;-46
2023/01/10 08:09:58;;;;;;;5.38;1.95;;;;;;;;;;5027833;28;20088;-48
2023/01/10 08:12:23;;;;;;;6.82;1.40;;;;;;;;;;5028661;28;20405;-45
2023/01/10 08:14:52;;;;;;;8.65;2.00;;;;;;;;;;5028713;28;20026;-42
2023/01/10 08:17:18;;;;;;;7.53;2.00;;;;;;;;;;5021517;28;20056;-43
2023/01/10 08:19:44;;;;;;;8.90;2.08;;;;;;;;;;5028856;28;20057;-50
2023/01/10 08:22:10;;;;;;;9.00;2.20;;;;;;;;;;5028701;28;20102;-43
2023/01/10 08:24:35;;;;;;;12.98;3.17;;;;;;;;;;5027974;28;20086;-47
2023/01/10 08:27:01;;;;;;;8.35;1.92;;;;;;;;;;5028599;28;20037;-44
2023/01/10 08:29:27;;;;;;;7.13;1.83;;;;;;;;;;5028274;28;20029;-46
2023/01/10 08:31:52;;;;;;;4.50;1.60;;;;;;;;;;5026538;28;20061;-43
2023/01/10 08:34:19;;;;;;;7.78;2.10;;;;;;;;;;5029050;28;20068;-44
2023/01/10 08:36:45;;;;;;;4.78;1.48;;;;;;;;;;5029090;28;20033;-44
2023/01/10 08:39:11;;;;;;;4.88;1.60;;;;;;;;;;5030052;28;20490;-48
2023/01/10 08:41:38;;;;;;;18.65;2.47;;;;;;;;;;5027512;28;20057;-48
2023/01/10 08:44:04;;;;;;;8.88;1.88;;;;;;;;;;5028692;28;20071;-42
2023/01/10 08:46:29;;;;;;;7.47;1.77;;;;;;;;;;5027128;28;20450;-47
2023/01/10 08:48:55;;;;;;;7.78;1.85;;;;;;;;;;5028678;28;20160;-42
2023/01/10 08:51:20;;;;;;;9.63;1.70;;;;;;;;;;5025820;28;20030;-42
2023/01/10 08:53:45;;;;;;;7.80;1.80;;;;;;;;;;5028087;28;20033;-48
2023/01/10 08:56:11;;;;;;;4.28;1.60;;;;;;;;;;5028933;28;20029;-42
2023/01/10 08:58:36;;;;;;;4.32;1.67;;;;;;;;;;5027383;28;20037;-44
2023/01/10 09:01:07;;;;;;;15.98;3.55;;;;;;;;;;5028038;28;20060;-44
2023/01/10 09:03:33;;;;;;;15.38;2.17;;;;;;;;;;5043029;28;20069;-43
2023/01/10 09:05:59;;;;;;;6.53;1.83;;;;;;;;;;5027324;28;20518;-45
2023/01/10 09:08:25;;;;;;;4.68;1.80;;;;;;;;;;5029695;28;20405;-43
2023/01/10 09:10:50;;;;;;;5.53;1.23;;;;;;;;;;5027944;28;20028;-42
2023/01/10 09:13:16;;;;;;;12.30;2.17;;;;;;;;;;5028260;28;20037;-48
2023/01/10 09:15:42;;;;;;;6.53;1.77;;;;;;;;;;5027220;28;20053;-44
2023/01/10 09:18:10;;;;;;;5.68;1.77;;;;;;;;;;5027276;28;20518;-46
2023/01/10 09:20:37;;;;;;;7.57;2.15;;;;;;;;;;5028604;28;20120;-45
2023/01/10 09:23:05;;;;;;;7.70;1.90;;;;;;;;;;5026150;28;20398;-45
2023/01/10 09:25:31;;;;;;;6.43;1.50;;;;;;;;;;5033466;28;20030;-47
2023/01/10 09:27:58;;;;;;;6.93;1.65;;;;;;;;;;5027190;28;20103;-42
2023/01/10 09:30:24;;;;;;;9.05;1.75;;;;;;;;;;5024403;28;20063;-51
2023/01/10 09:32:53;;;;;;;5.85;1.60;;;;;;;;;;5028611;28;20091;-45
2023/01/10 09:35:19;;;;;;;10.75;2.22;;;;;;;;;;5026439;28;20116;-49
2023/01/10 09:37:45;;;;;;;12.15;1.98;;;;;;;;;;5027080;28;20585;-42
2023/01/10 09:40:25;;;;;;;7.18;2.13;;;;;;;;;;5028215;28;20120;-50
2023/01/10 09:43:22;;;;;;;7.95;2.00;;;;;;;;;;5026650;28;20499;-41
2023/01/10 09:45:59;;;;;;;6.70;2.35;;;;;;;;;;5023697;28;20037;-47
2023/01/10 09:49:01;;;;;;;5.85;1.98;;;;;;;;;;5026761;28;20076;-42
2023/01/10 09:51:47;;;;;;;9.10;1.90;;;;;;;;;;5028145;28;20029;-45
2023/01/10 09:54:27;;;;;;;3.45;1.40;;;;;;;;;;5025449;28;20046;-46
2023/01/10 09:56:54;;;;;;;2.38;1.23;;;;;;;;;;5027468;28;20741;-42
2023/01/10 09:59:24;;;;;;;10.98;1.83;;;;;;;;;;5027836;28;20095;-42
2023/01/10 10:01:58;;;;;;;9.65;1.90;;;;;;;;;;5022737;28;20495;-47
2023/01/10 10:04:33;;;;;;;5.68;2.55;;;;;;;;;;5024190;28;20046;-43
2023/01/10 10:06:58;;;;;;;3.10;1.60;;;;;;;;;;5027931;28;20034;-44
2023/01/10 10:09:30;;;;;;;6.68;2.08;;;;;;;;;;5027606;28;20096;-44
2023/01/10 10:12:21;;;;;;;10.65;1.98;;;;;;;;;;5026096;28;20037;-42
2023/01/10 10:14:56;;;;;;;8.07;2.20;;;;;;;;;;5025615;28;20053;-45
2023/01/10 10:17:31;;;;;;;6.72;1.70;;;;;;;;;;5022776;28;20026;-43
2023/01/10 10:20:15;;;;;;;5.53;2.00;;;;;;;;;;5024285;28;20144;-44
2023/01/10 10:22:51;;;;;;;6.15;1.73;;;;;;;;;;5020733;28;20034;-43
2023/01/10 10:25:35;;;;;;;4.65;1.80;;;;;;;;;;5006560;28;20053;-41
2023/01/10 10:28:38;;;;;;;4.70;2.15;;;;;;;;;;5003340;28;20108;-43
2023/01/10 10:31:29;;;;;;;8.45;2.08;;;;;;;;;;5006794;28;20025;-43
2023/01/10 10:34:22;;;;;;;6.32;1.90;;;;;;;;;;5005413;28;20041;-43
2023/01/10 10:36:53;;;;;;;7.32;1.70;;;;;;;;;;5005095;28;20375;-45
2023/01/10 10:39:24;;;;;;;6.53;1.52;;;;;;;;;;5009585;28;20100;-43
2023/01/10 10:41:52;;;;;;;8.25;2.20;;;;;;;;;;5008706;28;20041;-42
2023/01/10 10:44:17;;;;;;;8.63;2.00;;;;;;;;;;5004752;28;20053;-40
2023/01/10 10:46:43;;;;;;;6.80;2.25;;;;;;;;;;5003076;28;20471;-42
2023/01/10 10:49:33;;;;;;;12.52;2.67;;;;;;;;;;5023064;28;20406;-45
2023/01/10 10:52:02;;;;;;;7.13;2.00;;;;;;;;;;5022922;28;20107;-42
2023/01/10 10:54:35;;;;;;;9.00;2.20;;;;;;;;;;5026598;28;20041;-42
2023/01/10 10:57:00;;;;;;;6.18;2.03;;;;;;;;;;5024185;28;20108;-45
2023/01/10 10:59:25;;;;;;;7.18;1.80;;;;;;;;;;5025830;28;20463;-42
2023/01/10 11:01:51;;;;;;;5.38;1.63;;;;;;;;;;5025879;28;20029;-43
2023/01/10 11:04:22;;;;;;;8.77;1.48;;;;;;;;;;5024016;28;20402;-43
2023/01/10 11:06:48;;;;;;;6.95;1.70;;;;;;;;;;5026592;28;20049;-42
2023/01/10 11:09:23;;;;;;;4.82;1.70;;;;;;;;;;5027203;28;20136;-42
2023/01/10 11:11:51;;;;;;;8.60;2.10;;;;;;;;;;5027679;28;20562;-42
2023/01/10 11:14:54;;;;;;;5.63;1.85;;;;;;;;;;5026211;28;20529;-43
2023/01/10 11:17:26;;;;;;;;;;;;;;;;;;5027816;28;20418;-42
2023/01/10 11:19:54;;;;;;;;;;;;;;;;;;5023390;28;19921;-42
2023/01/10 11:22:20;;;;;;;;;;;;;;;;;;5029814;28;19917;-43
2023/01/10 11:24:53;;;;;;;;;;;;;;;;;;5027249;28;19987;-45
2023/01/10 11:27:20;;;;;;;;;;;;;;;;;;5022692;28;19967;-42
2023/01/10 11:29:49;;;;;;;;;;;;;;;;;;5029787;28;19920;-45
2023/01/10 11:32:21;;;;;;;;;;;;;;;;;;5029508;28;19928;-41
2023/01/10 11:34:57;;;;;;;;;;;;;;;;;;5032970;28;19925;-45
2023/01/10 11:37:31;;;;;;;;;;;;;;;;;;5031764;28;20388;-41
2023/01/10 11:40:08;;;;;;;;;;;;;;;;;;5031339;28;19971;-42
2023/01/10 11:42:33;;;;;;;;;;;;;;;;;;5028332;28;20014;-45
2023/01/10 11:45:19;;;;;;;;;;;;;;;;;;5031228;28;19956;-47
2023/01/10 11:47:46;;;;;;;;;;;;;;;;;;5031296;28;19925;-43
2023/01/10 11:50:18;;;;;;;;;;;;;;;;;;5042876;28;19925;-49
2023/01/10 11:52:43;;;;;;;;;;;;;;;;;;5030378;28;20836;-42
2023/01/10 11:55:09;;;;;;;;;;;;;;;;;;5031259;28;19932;-47
2023/01/10 11:57:35;;;;;;;;;;;;;;;;;;5029595;28;19964;-42
2023/01/10 12:00:05;;;;;;;;;;;;;;;;;;5030231;28;19921;-42
2023/01/10 12:02:39;;;;;;;;;;;;;;;;;;5029192;28;20330;-47
2023/01/10 12:05:23;;;;;;;;;;;;;;;;;;5032187;28;19917;-44
2023/01/10 12:07:55;;;;;;;;;;;;;;;;;;5027357;28;19952;-45
2023/01/10 12:10:21;;;;;;;;;;;;;;;;;;5025877;28;19929;-44
2023/01/10 12:12:58;;;;;;;;;;;;;;;;;;5027514;28;20377;-42
2023/01/10 12:15:27;;;;;;;;;;;;;;;;;;5029531;28;19928;-44
2023/01/10 12:17:54;;;;;;;;;;;;;;;;;;5028810;28;19928;-42
2023/01/10 12:20:20;;;;;;;;;;;;;;;;;;5030916;28;19970;-44
2023/01/10 12:22:47;;;;;;;;;;;;;;;;;;5027169;28;19921;-42
2023/01/10 12:25:42;;;;;;;;;;;;;;;;;;5028623;28;19921;-43
2023/01/10 12:28:19;;;;;;;;;;;;;;;;;;4989227;28;19921;-43
2023/01/10 12:30:49;;;;;;;;;;;;;;;;;;4988398;28;19918;-42
2023/01/10 12:33:17;;;;;;;;;;;;;;;;;;4989396;28;20409;-43
2023/01/10 12:35:43;;;;;;;;;;;;;;;;;;4992543;28;19917;-45
2023/01/10 12:44:09;;;;;;;;;;;;;;;;;;4984816;28;19928;-42
2023/01/10 12:44:11;;;;;;;;;;;;;;;;;;4987574;28;20008;-42
2023/01/10 12:46:39;;;;;;;;;;;;;;;;;;4987121;28;19941;-46
2023/01/10 12:49:20;;;;;;;;;;;;;;;;;;4983866;28;20404;-43
2023/01/10 12:51:47;;;;;;;;;;;;;;;;;;4986296;28;19928;-45
2023/01/10 12:54:15;;;;;;;;;;;;;;;;;;4987725;28;20072;-43
2023/01/10 12:56:40;;;;;;;;;;;;;;;;;;4986210;28;19988;-45
2023/01/10 12:59:19;;;;;;;;;;;;;;;;;;4987955;28;20402;-43
2023/01/10 13:01:46;;;;;;;;;;;;;;;;;;4985657;28;19981;-43
2023/01/10 13:04:14;;;;;;;;;;;;;;;;;;5003059;28;20421;-44
2023/01/10 13:06:41;;;;;;;;;;;;;;;;;;5029525;28;20263;-44
2023/01/10 13:09:08;;;;;;;;;;;;;;;;;;5028976;28;19929;-45
2023/01/10 13:11:39;;;;;;;;;;;;;;;;;;5027221;28;19940;-48
2023/01/10 13:14:05;;;;;;;;;;;;;;;;;;5025109;28;20011;-44
2023/01/10 13:16:34;;;;;;;;;;;;;;;;;;5028508;28;19917;-43
2023/01/10 13:19:08;;;;;;;;;;;;;;;;;;5027588;28;19928;-43
2023/01/10 13:21:34;;;;;;;;;;;;;;;;;;5027773;28;20473;-43
2023/01/10 13:24:03;;;;;;;;;;;;;;;;;;5024629;28;20004;-43
2023/01/10 13:27:04;;;;;;;;;;;;;;;;;;5026114;28;19917;-43
2023/01/10 13:29:36;;;;;;;;;;;;;;;;;;4980995;28;19968;-42
2023/01/10 13:32:14;;;;;;;;;;;;;;;;;;4985703;28;20378;-43
2023/01/10 13:34:39;;;;;;;;;;;;;;;;;;4983783;28;19929;-43
2023/01/10 13:37:12;;;;;;;;;;;;;;;;;;4981371;28;19959;-44
2023/01/10 13:39:39;;;;;;;;;;;;;;;;;;4987757;28;19921;-44
2023/01/10 13:45:01;;;;;;;;;;;;;;;;;;4982510;28;19976;-45
2023/01/10 13:47:38;;;;;;;;;;;;;;;;;;4977902;28;19969;-43
2023/01/10 13:50:21;;;;;;;;;;;;;;;;;;4984213;28;19929;-45
2023/01/10 13:52:47;;;;;;;;;;;;;;;;;;4982005;28;19922;-46
2023/01/10 13:55:35;;;;;;;;;;;;;;;;;;4985476;28;19939;-43
2023/01/10 14:04:17;;;;;;;;;;;;;;;;;;4917547;29;20747;-45
2023/01/10 14:06:42;;;;;;;;;;;;;;;;;;4923010;29;20395;-43
2023/01/10 14:09:13;;;;;;;;;;;;;;;;;;4936692;28;19923;-44
2023/01/10 14:11:41;;;;;;;;;;;;;;;;;;4945341;28;19923;-44
2023/01/10 14:14:17;;;;;;;;;;;;;;;;;;4941231;28;19942;-43
2023/01/10 14:16:44;;;;;;;;;;;;;;;;;;4940125;28;20481;-44
2023/01/10 14:19:29;;;;;;;;;;;;;;;;;;4928615;28;19974;-42
2023/01/10 14:21:56;;;;;;;;;;;;;;;;;;4945745;28;19930;-45
2023/01/10 14:24:40;;;;;;;;;;;;;;;;;;4939988;28;19922;-43
2023/01/10 14:27:06;;;;;;;;;;;;;;;;;;4943700;28;19923;-42
2023/01/10 14:29:32;;;;;;;;;;;;;;;;;;4946397;28;19930;-43
2023/01/10 14:31:58;;;;;;;;;;;;;;;;;;4942789;28;19938;-43
2023/01/10 14:34:26;;;;;;;;;;;;;;;;;;4939650;28;19926;-44
2023/01/10 14:37:02;;;;;;;;;;;;;;;;;;4946778;28;20432;-43
2023/01/10 14:39:28;;;;;;;;;;;;;;;;;;5007260;28;19940;-45
2023/01/10 14:41:56;;;;;;;;;;;;;;;;;;5009330;28;19917;-43
2023/01/10 14:44:35;;;;;;;;;;;;;;;;;;5025084;28;19921;-43
2023/01/10 14:47:04;;;;;;;;;;;;;;;;;;5028160;28;19925;-43
2023/01/10 14:49:34;;;;;;;;;;;;;;;;;;5027790;28;19999;-45
2023/01/10 14:52:11;;;;;;;;;;;;;;;;;;5027706;28;20028;-42
2023/01/10 14:54:36;;;;;;;;;;;;;;;;;;5025681;28;20007;-45
2023/01/10 14:57:02;;;;;;;;;;;;;;;;;;5027541;28;20011;-42
2023/01/10 14:59:27;;;;;;;;;;;;;;;;;;5008748;28;19935;-44
2023/01/10 15:01:55;;;;;;;;;;;;;;;;;;5009007;28;19917;-43
2023/01/10 15:04:22;;;;;;;;;;;;;;;;;;5002943;28;20016;-43
2023/01/10 15:06:55;;;;;;;;;;;;;;;;;;5008721;28;19980;-46
2023/01/10 15:09:20;;;;;;;;;;;;;;;;;;5009604;28;19932;-45
2023/01/10 15:11:46;;;;;;;;;;;;;;;;;;5007058;28;19921;-46
2023/01/10 15:14:16;;;;;;;;;;;;;;;;;;5008253;28;19926;-44
2023/01/10 15:16:42;;;;;;;;;;;;;;;;;;5011930;28;20011;-45
2023/01/10 15:19:09;;;;;;;;;;;;;;;;;;5012253;28;20060;-44
2023/01/10 15:21:40;;;;;;;;;;;;;;;;;;5007847;28;19922;-44
2023/01/10 15:24:21;;;;;;;;;;;;;;;;;;5008287;28;20310;-44
2023/01/10 15:26:50;;;;;;;;;;;;;;;;;;5007969;28;19921;-44
2023/01/10 15:29:18;;;;;;;;;;;;;;;;;;5009760;28;20385;-43
2023/01/10 15:31:43;;;;;;;;;;;;;;;;;;5009789;28;19921;-43
2023/01/10 15:34:17;;;;;;;;;;;;;;;;;;5009282;28;19932;-44
2023/01/10 15:36:44;;;;;;;;;;;;;;;;;;5010110;28;19921;-43
2023/01/10 15:39:16;;;;;;;;;;;;;;;;;;5012627;28;20004;-46
2023/01/10 15:41:41;;;;;;;;;;;;;;;;;;5009869;28;20401;-43
2023/01/10 15:44:33;;;;;;;;;;;;;;;;;;5010212;28;20027;-46
2023/01/10 15:46:58;;;;;;;;;;;;;;;;;;5006263;28;19925;-46
2023/01/10 15:49:24;;;;;;;;;;;;;;;;;;5017420;28;20294;-42
2023/01/10 15:51:50;;;;;;;;;;;;;;;;;;5018213;28;20294;-44